createdAt,value
2017-11-04T00:02:01.859Z,33.13
2017-11-04T00:04:30.235Z,33.03
2017-11-04T00:06:58.710Z,33.50
2017-11-04T00:09:27.920Z,33.77
2017-11-04T00:11:56.333Z,33.83
2017-11-04T00:14:25.491Z,34.83
2017-11-04T00:16:54.302Z,31.60
2017-11-04T00:19:22.661Z,33.67
2017-11-04T00:21:51.376Z,34.93
2017-11-04T00:24:20.788Z,34.77
2017-11-04T00:26:49.908Z,32.50
2017-11-04T00:29:18.278Z,35.53
2017-11-04T00:31:46.642Z,33.03
2017-11-04T00:34:15.767Z,36.47
2017-11-04T00:36:44.114Z,33.70
2017-11-04T00:39:13.651Z,35.70
2017-11-04T00:41:42.006Z,34.30
2017-11-04T00:44:12.820Z,32.93
2017-11-04T00:46:42.071Z,34.47
2017-11-04T00:49:10.412Z,34.23
2017-11-04T00:51:39.758Z,35.77
2017-11-04T00:54:08.134Z,33.20
2017-11-04T00:56:36.470Z,33.00
2017-11-04T00:59:04.829Z,32.77
2017-11-04T01:01:34.253Z,33.80
2017-11-04T01:04:03.382Z,35.80
2017-11-04T01:06:31.728Z,35.20
2017-11-04T01:09:00.868Z,34.47
2017-11-04T01:11:30.790Z,34.73
2017-11-04T01:13:59.120Z,33.47
2017-11-04T01:16:27.605Z,34.33
2017-11-04T01:18:55.942Z,37.67
2017-11-04T01:21:24.291Z,36.80
2017-11-04T01:23:53.914Z,37.50
2017-11-04T01:26:22.267Z,34.53
2017-11-04T01:28:50.614Z,34.87
2017-11-04T01:31:19.981Z,34.70
2017-11-04T01:33:49.332Z,35.40
2017-11-04T01:36:18.650Z,34.17
2017-11-04T01:38:47.028Z,35.63
2017-11-04T01:41:15.612Z,34.90
2017-11-04T01:43:44.215Z,34.33
2017-11-04T01:46:13.458Z,34.30
2017-11-04T01:48:41.831Z,35.80
2017-11-04T01:51:10.592Z,35.50
2017-11-04T01:53:38.873Z,36.63
2017-11-04T01:56:07.216Z,37.70
2017-11-04T01:58:36.818Z,36.43
2017-11-04T02:01:05.206Z,35.17
2017-11-04T02:03:33.719Z,37.87
2017-11-04T02:06:02.316Z,36.00
2017-11-04T02:08:31.135Z,35.17
2017-11-04T02:10:59.485Z,36.53
2017-11-04T02:13:27.851Z,36.40
2017-11-04T02:15:56.222Z,36.37
2017-11-04T02:18:26.534Z,35.50
2017-11-04T02:20:55.596Z,36.70
2017-11-04T02:23:23.991Z,35.40
2017-11-04T02:25:52.374Z,36.67
2017-11-04T02:28:21.499Z,37.97
2017-11-04T02:30:50.292Z,37.47
2017-11-04T02:33:18.654Z,37.13
2017-11-04T02:35:46.994Z,37.40
2017-11-04T02:38:15.817Z,37.57
2017-11-04T02:40:44.999Z,38.87
2017-11-04T02:43:13.368Z,37.90
2017-11-04T02:45:41.736Z,39.17
2017-11-04T02:48:10.934Z,38.20
2017-11-04T02:50:39.296Z,36.80
2017-11-04T02:53:08.803Z,36.80
2017-11-04T02:55:37.137Z,35.90
2017-11-04T02:58:06.176Z,35.90
2017-11-04T03:00:34.556Z,38.30
2017-11-04T03:03:04.176Z,38.40
2017-11-04T03:05:32.532Z,39.07
2017-11-04T03:08:00.933Z,37.60
2017-11-04T03:10:29.288Z,38.50
2017-11-04T03:12:57.630Z,36.10
2017-11-04T03:15:26.965Z,38.50
2017-11-04T03:17:55.312Z,37.87
2017-11-04T03:20:24.309Z,36.57
2017-11-04T03:22:53.489Z,40.77
2017-11-04T03:25:22.637Z,39.47
2017-11-04T03:27:50.986Z,39.40
2017-11-04T03:30:20.133Z,38.37
2017-11-04T03:32:48.473Z,36.87
2017-11-04T03:35:17.504Z,40.40
2017-11-04T03:37:45.951Z,41.60
2017-11-04T03:40:14.309Z,39.17
2017-11-04T03:42:42.662Z,40.00
2017-11-04T03:45:11.368Z,41.87
2017-11-04T03:47:40.707Z,38.73
2017-11-04T03:50:09.033Z,41.07
2017-11-04T03:52:37.377Z,40.53
2017-11-04T03:55:05.713Z,40.63
2017-11-04T03:57:34.080Z,41.03
2017-11-04T04:00:02.983Z,42.03
2017-11-04T04:02:31.323Z,39.17
2017-11-04T04:04:59.676Z,41.03
2017-11-04T04:07:28.075Z,40.60
2017-11-04T04:09:56.478Z,40.67
2017-11-04T04:12:24.885Z,42.27
2017-11-04T04:14:53.336Z,42.57
2017-11-04T04:17:21.993Z,44.13
2017-11-04T04:19:50.579Z,42.37
2017-11-04T04:22:20.179Z,43.83
2017-11-04T04:24:49.412Z,43.97
2017-11-04T04:27:18.571Z,41.22
2017-11-04T04:29:47.734Z,41.33
2017-11-04T04:32:16.093Z,41.00
2017-11-04T04:34:46.135Z,43.80
2017-11-04T04:37:14.509Z,42.53
2017-11-04T04:39:42.877Z,40.80
2017-11-04T04:42:12.013Z,41.00
2017-11-04T04:44:40.877Z,41.47
2017-11-04T04:47:09.808Z,39.93
2017-11-04T04:49:38.967Z,37.13
2017-11-04T04:52:08.062Z,40.87
2017-11-04T04:54:36.410Z,40.50
2017-11-04T04:57:05.534Z,38.25
2017-11-04T04:59:35.279Z,40.93
2017-11-04T05:02:03.630Z,41.85
2017-11-04T05:04:31.965Z,39.72
2017-11-04T05:07:00.488Z,40.15
2017-11-04T05:09:29.886Z,39.90
2017-11-04T05:11:58.346Z,38.37
2017-11-04T05:14:27.413Z,38.20
2017-11-04T05:16:55.758Z,39.27
2017-11-04T05:19:24.989Z,36.83
2017-11-04T05:21:53.486Z,36.97
2017-11-04T05:24:21.842Z,38.08
2017-11-04T05:26:50.196Z,37.30
2017-11-04T05:29:19.442Z,40.50
2017-11-04T05:31:48.614Z,38.37
2017-11-04T05:34:18.046Z,40.90
2017-11-04T05:36:47.903Z,40.20
2017-11-04T05:39:16.249Z,37.97
2017-11-04T05:41:45.361Z,37.90
2017-11-04T05:44:14.747Z,38.28
2017-11-04T05:46:44.930Z,40.08
2017-11-04T05:49:14.098Z,37.42
2017-11-04T05:51:42.621Z,38.45
2017-11-04T05:54:10.993Z,38.97
2017-11-04T05:56:39.930Z,38.00
2017-11-04T05:59:09.520Z,38.53
2017-11-04T06:01:37.918Z,37.90
2017-11-04T06:04:07.248Z,40.30
2017-11-04T06:06:35.613Z,38.75
2017-11-04T06:09:03.960Z,39.40
2017-11-04T06:11:32.331Z,37.13
2017-11-04T06:14:03.822Z,37.70
2017-11-04T06:16:32.921Z,38.35
2017-11-04T06:19:02.353Z,38.28
2017-11-04T06:21:30.699Z,38.88
2017-11-04T06:23:59.793Z,38.13
2017-11-04T06:26:30.337Z,37.20
2017-11-04T06:28:58.684Z,37.00
2017-11-04T06:31:27.042Z,36.72
2017-11-04T06:33:56.568Z,38.15
2017-11-04T06:36:25.512Z,37.85
2017-11-04T06:38:53.896Z,38.70
2017-11-04T06:41:22.944Z,37.20
2017-11-04T06:43:53.101Z,36.90
2017-11-04T06:46:22.267Z,38.83
2017-11-04T06:48:51.398Z,37.03
2017-11-04T06:51:21.137Z,37.53
2017-11-04T06:53:50.923Z,35.25
2017-11-04T06:56:19.665Z,38.88
2017-11-04T06:58:48.031Z,37.00
2017-11-04T07:01:16.392Z,36.67
2017-11-04T07:03:44.784Z,36.83
2017-11-04T07:06:13.150Z,36.78
2017-11-04T07:08:41.501Z,35.58
2017-11-04T07:11:09.892Z,34.17
2017-11-04T07:13:38.259Z,35.83
2017-11-04T07:16:06.830Z,33.63
2017-11-04T07:18:36.562Z,35.40
2017-11-04T07:21:04.915Z,35.73
2017-11-04T07:23:35.286Z,33.33
2017-11-04T07:26:03.705Z,34.30
2017-11-04T07:28:32.942Z,33.17
2017-11-04T07:31:01.277Z,33.17
2017-11-04T07:33:30.426Z,35.33
2017-11-04T07:35:59.981Z,33.20
2017-11-04T07:38:29.112Z,33.60
2017-11-04T07:40:57.627Z,32.67
2017-11-04T07:43:27.693Z,34.70
2017-11-04T07:45:56.813Z,33.73
2017-11-04T07:48:25.685Z,33.70
2017-11-04T07:50:54.053Z,34.40
2017-11-04T07:53:22.393Z,33.30
2017-11-04T07:55:51.205Z,34.17
2017-11-04T07:58:21.043Z,33.70
2017-11-04T08:00:49.422Z,33.73
2017-11-04T08:03:18.620Z,34.90
2017-11-04T08:05:47.736Z,34.47
2017-11-04T08:08:17.437Z,33.20
2017-11-04T08:10:46.081Z,35.27
2017-11-04T08:13:14.422Z,34.30
2017-11-04T08:15:42.742Z,34.37
2017-11-04T08:18:12.025Z,34.10
2017-11-04T08:20:40.380Z,32.40
2017-11-04T08:23:08.717Z,33.50
2017-11-04T08:25:37.511Z,32.83
2017-11-04T08:28:07.320Z,34.63
2017-11-04T08:30:36.419Z,33.33
2017-11-04T08:33:05.577Z,33.67
2017-11-04T08:35:35.547Z,35.07
2017-11-04T08:38:05.476Z,34.40
2017-11-04T08:40:34.707Z,33.93
2017-11-04T08:43:03.067Z,35.17
2017-11-04T08:45:31.436Z,34.27
2017-11-04T08:48:00.697Z,34.00
2017-11-04T08:50:29.424Z,33.40
2017-11-04T08:52:57.778Z,32.93
2017-11-04T08:55:27.718Z,33.33
2017-11-04T08:57:56.074Z,32.00
2017-11-04T09:00:24.787Z,32.30
2017-11-04T09:02:53.941Z,34.37
2017-11-04T09:05:25.317Z,31.70
2017-11-04T09:07:54.425Z,33.07
2017-11-04T09:10:24.443Z,33.30
2017-11-04T09:12:54.348Z,32.80
2017-11-04T09:15:24.558Z,32.23
2017-11-04T09:17:53.720Z,32.83
2017-11-04T09:20:22.106Z,31.60
2017-11-04T09:22:51.241Z,30.97
2017-11-04T09:25:20.381Z,31.07
2017-11-04T09:27:49.606Z,29.83
2017-11-04T09:30:17.981Z,31.60
2017-11-04T09:32:46.580Z,31.17
2017-11-04T09:35:15.882Z,31.00
2017-11-04T09:37:45.461Z,29.60
2017-11-04T09:40:13.835Z,28.83
2017-11-04T09:42:42.237Z,30.23
2017-11-04T09:45:12.155Z,30.87
2017-11-04T09:47:40.565Z,30.20
2017-11-04T09:50:08.934Z,31.30
2017-11-04T09:52:38.939Z,30.20
2017-11-04T09:55:07.399Z,30.50
2017-11-04T09:57:36.162Z,28.83
2017-11-04T10:00:04.750Z,31.87
2017-11-04T10:02:33.121Z,31.30
2017-11-04T10:05:02.062Z,32.80
2017-11-04T10:07:30.623Z,32.23
2017-11-04T10:09:58.986Z,29.10
2017-11-04T10:12:27.313Z,30.80
2017-11-04T10:14:55.656Z,31.03
2017-11-04T10:17:24.069Z,30.67
2017-11-04T10:19:52.454Z,31.00
2017-11-04T10:22:20.834Z,33.63
2017-11-04T10:24:49.880Z,30.50
2017-11-04T10:27:18.255Z,32.10
2017-11-04T10:29:47.475Z,32.70
2017-11-04T10:32:16.649Z,31.97
2017-11-04T10:34:45.012Z,32.13
2017-11-04T10:37:13.398Z,32.07
2017-11-04T10:39:42.687Z,31.63
2017-11-04T10:42:13.438Z,31.27
2017-11-04T10:44:41.770Z,30.47
2017-11-04T10:47:10.254Z,32.03
2017-11-04T10:49:38.612Z,33.27
2017-11-04T10:52:06.987Z,31.33
2017-11-04T10:54:35.417Z,31.13
2017-11-04T10:57:04.805Z,31.90
2017-11-04T10:59:33.925Z,33.63
2017-11-04T11:02:02.898Z,31.90
2017-11-04T11:04:31.241Z,30.33
2017-11-04T11:07:00.001Z,30.13
2017-11-04T11:09:29.324Z,30.00
2017-11-04T11:11:58.714Z,29.77
2017-11-04T11:14:27.066Z,31.10
2017-11-04T11:16:55.458Z,29.80
2017-11-04T11:19:24.264Z,31.00
2017-11-04T11:21:52.618Z,30.80
2017-11-04T11:24:22.335Z,31.80
2017-11-04T11:26:51.160Z,30.97
2017-11-04T11:29:19.499Z,31.23
2017-11-04T11:31:49.711Z,30.57
2017-11-04T11:34:18.818Z,30.53
2017-11-04T11:36:47.169Z,32.70
2017-11-04T11:39:16.391Z,32.63
2017-11-04T11:41:44.738Z,30.60
2017-11-04T11:44:13.891Z,31.40
2017-11-04T11:46:42.345Z,31.57
2017-11-04T11:49:12.593Z,33.70
2017-11-04T11:51:42.232Z,30.50
2017-11-04T11:54:12.023Z,34.60
2017-11-04T11:56:41.291Z,33.10
2017-11-04T11:59:09.626Z,33.20
2017-11-04T12:01:38.036Z,32.17
2017-11-04T12:04:07.133Z,34.27
2017-11-04T12:06:36.282Z,31.97
2017-11-04T12:09:04.810Z,33.07
2017-11-04T12:11:33.940Z,32.83
2017-11-04T12:14:02.348Z,32.37
2017-11-04T12:17:00.251Z,32.20
2017-11-04T12:22:23.443Z,30.77
2017-11-04T12:24:51.823Z,32.30
2017-11-04T12:27:21.114Z,33.13
2017-11-04T12:29:51.233Z,32.17
2017-11-04T12:32:20.326Z,32.73
2017-11-04T12:34:50.599Z,33.70
2017-11-04T12:37:19.056Z,33.77
2017-11-04T12:39:47.418Z,34.27
2017-11-04T12:42:16.850Z,33.77
2017-11-04T12:44:45.237Z,33.53
2017-11-04T12:47:13.589Z,35.00
2017-11-04T12:49:41.971Z,33.67
2017-11-04T12:52:10.842Z,33.53
2017-11-04T12:54:39.938Z,31.80
2017-11-04T12:57:09.094Z,33.10
2017-11-04T12:59:38.266Z,33.80
2017-11-04T13:02:07.764Z,30.03
2017-11-04T13:04:36.139Z,32.40
2017-11-04T13:07:04.502Z,31.80
2017-11-04T13:09:33.518Z,31.33
2017-11-04T13:12:02.467Z,30.90
2017-11-04T13:14:30.892Z,31.80
2017-11-04T13:16:59.326Z,30.97
2017-11-04T13:19:28.577Z,31.10
2017-11-04T13:21:57.204Z,32.57
2017-11-04T13:24:25.573Z,30.67
2017-11-04T13:26:55.559Z,32.87
2017-11-04T13:29:23.938Z,32.60
2017-11-04T13:31:53.556Z,31.77
2017-11-04T13:34:21.915Z,32.33
2017-11-04T13:36:51.239Z,31.20
2017-11-04T13:39:19.613Z,30.97
2017-11-04T13:41:48.113Z,30.93
2017-11-04T13:44:17.210Z,31.53
2017-11-04T13:46:45.570Z,32.07
2017-11-04T13:49:14.821Z,31.40
2017-11-04T13:51:43.930Z,29.70
2017-11-04T13:54:13.103Z,30.50
2017-11-04T13:56:42.781Z,29.93
2017-11-04T13:59:11.470Z,30.80
2017-11-04T14:01:40.593Z,30.93
2017-11-04T14:04:09.867Z,29.70
2017-11-04T14:06:38.568Z,31.03
2017-11-04T14:09:06.997Z,32.90
2017-11-04T14:11:37.775Z,30.80
2017-11-04T14:14:06.160Z,31.87
2017-11-04T14:16:34.591Z,31.90
2017-11-04T14:19:03.690Z,30.97
2017-11-04T14:21:32.907Z,31.87
2017-11-04T14:24:01.288Z,30.30
2017-11-04T14:26:29.696Z,31.83
2017-11-04T14:28:58.109Z,30.17
2017-11-04T14:31:27.937Z,29.50
2017-11-04T14:33:57.220Z,29.93
2017-11-04T14:36:26.596Z,28.90
2017-11-04T14:38:56.796Z,30.10
2017-11-04T14:41:25.854Z,33.03
2017-11-04T14:43:55.370Z,30.73
2017-11-04T14:46:24.508Z,32.33
2017-11-04T14:48:52.882Z,31.67
2017-11-04T14:51:21.245Z,31.77
2017-11-04T14:53:50.478Z,28.83
2017-11-04T14:56:18.852Z,30.80
2017-11-04T14:58:47.252Z,30.27
2017-11-04T15:01:15.806Z,30.43
2017-11-04T15:03:44.154Z,30.00
2017-11-04T15:06:14.679Z,29.70
2017-11-04T15:08:43.045Z,30.23
2017-11-04T15:11:11.425Z,30.03
2017-11-04T15:13:39.822Z,30.97
2017-11-04T15:16:08.224Z,30.60
2017-11-04T15:18:36.612Z,32.20
2017-11-04T15:21:06.324Z,31.37
2017-11-04T15:23:35.828Z,30.40
2017-11-04T15:26:04.181Z,31.00
2017-11-04T15:28:32.729Z,32.67
2017-11-04T15:31:01.880Z,31.00
2017-11-04T15:33:30.634Z,32.67
2017-11-04T15:35:59.022Z,29.03
2017-11-04T15:38:27.355Z,33.03
2017-11-04T15:40:55.730Z,32.77
2017-11-04T15:43:25.855Z,31.40
2017-11-04T15:45:54.215Z,35.20
2017-11-04T15:48:23.285Z,37.00
2017-11-04T15:50:53.482Z,36.53
2017-11-04T15:53:22.842Z,36.17
2017-11-04T15:55:51.215Z,36.57
2017-11-04T15:58:20.878Z,35.70
2017-11-04T16:00:50.004Z,34.33
2017-11-04T16:03:18.769Z,33.63
2017-11-04T16:05:47.149Z,35.73
2017-11-04T16:08:15.632Z,34.13
2017-11-04T16:10:44.815Z,35.87
2017-11-04T16:13:13.976Z,34.70
2017-11-04T16:15:43.099Z,36.27
2017-11-04T16:18:12.068Z,35.17
2017-11-04T16:20:40.449Z,36.00
2017-11-04T16:23:11.055Z,32.67
2017-11-04T16:25:39.421Z,33.57
2017-11-04T16:28:07.847Z,36.93
2017-11-04T16:30:36.214Z,34.33
2017-11-04T16:33:04.579Z,32.90
2017-11-04T16:35:33.455Z,36.53
2017-11-04T16:38:01.805Z,34.70
2017-11-04T16:40:30.208Z,33.57
2017-11-04T16:42:58.587Z,38.80
2017-11-04T16:45:26.934Z,35.37
2017-11-04T16:47:56.046Z,36.60
2017-11-04T16:50:24.453Z,36.47
2017-11-04T16:52:52.800Z,35.13
2017-11-04T16:55:21.588Z,38.70
2017-11-04T16:57:50.049Z,38.50
2017-11-04T17:00:18.456Z,37.10
2017-11-04T17:02:46.825Z,38.13
2017-11-04T17:05:15.287Z,36.50
2017-11-04T17:07:44.088Z,37.10
2017-11-04T17:10:13.456Z,39.30
2017-11-04T17:12:42.068Z,38.47
2017-11-04T17:15:11.432Z,37.37
2017-11-04T17:17:40.062Z,38.27
2017-11-04T17:20:09.807Z,38.37
2017-11-04T17:22:38.766Z,38.03
2017-11-04T17:25:07.795Z,39.73
2017-11-04T17:27:36.182Z,38.30
2017-11-04T17:30:04.573Z,39.57
2017-11-04T17:32:33.186Z,37.90
2017-11-04T17:35:01.570Z,39.10
2017-11-04T17:37:30.018Z,41.27
2017-11-04T17:39:59.107Z,42.43
2017-11-04T17:42:28.443Z,39.50
2017-11-04T17:44:57.645Z,40.73
2017-11-04T17:47:26.015Z,39.87
2017-11-04T17:49:54.406Z,40.40
2017-11-04T17:52:23.698Z,38.77
2017-11-04T17:54:52.079Z,39.60
2017-11-04T17:57:20.728Z,40.33
2017-11-04T17:59:49.069Z,40.20
2017-11-04T18:02:19.176Z,37.57
2017-11-04T18:04:47.677Z,40.40
2017-11-04T18:07:16.686Z,41.60
2017-11-04T18:09:45.062Z,40.83
2017-11-04T18:12:13.480Z,41.37
2017-11-04T18:14:42.174Z,39.33
2017-11-04T18:17:10.541Z,40.47
2017-11-04T18:19:38.934Z,40.20
2017-11-04T18:22:07.419Z,41.13
2017-11-04T18:24:35.806Z,41.33
2017-11-04T18:27:04.452Z,42.20
2017-11-04T18:29:32.818Z,39.60
2017-11-04T18:32:01.722Z,41.10
2017-11-04T18:34:30.954Z,40.73
2017-11-04T18:36:59.327Z,40.73
2017-11-04T18:39:27.698Z,40.77
2017-11-04T18:41:57.060Z,39.70
2017-11-04T18:44:26.359Z,39.70
2017-11-04T18:46:54.755Z,39.83
2017-11-04T18:49:24.072Z,40.43
2017-11-04T18:51:52.433Z,42.23
2017-11-04T18:54:20.787Z,40.43
2017-11-04T18:56:49.180Z,43.37
2017-11-04T18:59:19.333Z,41.10
2017-11-04T19:01:48.506Z,39.17
2017-11-04T19:04:16.902Z,41.37
2017-11-04T19:06:46.684Z,40.67
2017-11-04T19:09:15.587Z,39.93
2017-11-04T19:11:44.246Z,39.90
2017-11-04T19:14:12.620Z,39.90
2017-11-04T19:16:41.686Z,41.37
2017-11-04T19:19:11.073Z,40.80
2017-11-04T19:21:39.427Z,39.97
2017-11-04T19:24:08.550Z,37.47
2017-11-04T19:26:36.908Z,37.90
2017-11-04T19:29:05.282Z,36.90
2017-11-04T19:31:33.659Z,37.93
2017-11-04T19:34:02.760Z,38.57
2017-11-04T19:36:32.836Z,36.87
2017-11-04T19:39:01.238Z,38.70
2017-11-04T19:41:30.391Z,36.77
2017-11-04T19:43:58.741Z,35.90
2017-11-04T19:46:27.829Z,36.43
2017-11-04T19:48:56.282Z,38.53
2017-11-04T19:51:28.539Z,38.10
2017-11-04T19:53:58.772Z,37.97
2017-11-04T19:56:27.142Z,36.50
2017-11-04T19:58:56.210Z,39.27
2017-11-04T20:01:24.598Z,35.30
2017-11-04T20:03:52.952Z,37.33
2017-11-04T20:06:21.373Z,37.00
2017-11-04T20:08:50.133Z,37.53
2017-11-04T20:11:18.523Z,36.87
2017-11-04T20:13:46.896Z,37.83
2017-11-04T20:16:15.589Z,37.60
2017-11-04T20:18:43.938Z,36.30
2017-11-04T20:21:12.287Z,35.70
2017-11-04T20:23:41.445Z,37.03
2017-11-04T20:26:10.203Z,36.50
2017-11-04T20:28:38.617Z,34.97
2017-11-04T20:31:07.255Z,35.10
2017-11-04T20:33:36.356Z,36.00
2017-11-04T20:36:05.544Z,35.13
2017-11-04T20:38:34.722Z,34.80
2017-11-04T20:41:03.111Z,35.50
2017-11-04T20:43:31.487Z,34.40
2017-11-04T20:46:00.654Z,34.80
2017-11-04T20:48:29.957Z,34.53
2017-11-04T20:50:58.436Z,33.83
2017-11-04T20:53:26.956Z,33.93
2017-11-04T20:55:55.400Z,33.90
2017-11-04T20:58:24.541Z,35.37
2017-11-04T21:00:53.157Z,32.67
2017-11-04T21:03:21.722Z,34.37
2017-11-04T21:05:50.102Z,35.57
2017-11-04T21:08:18.516Z,34.00
2017-11-04T21:10:46.902Z,34.80
2017-11-04T21:13:15.317Z,32.77
2017-11-04T21:15:43.759Z,33.00
2017-11-04T21:18:12.937Z,32.97
2017-11-04T21:20:41.302Z,34.47
2017-11-04T21:23:09.780Z,30.83
2017-11-04T21:25:38.709Z,32.23
2017-11-04T21:28:07.292Z,32.83
2017-11-04T21:30:35.705Z,32.13
2017-11-04T21:33:04.077Z,32.17
2017-11-04T21:35:33.233Z,29.70
2017-11-04T21:38:01.636Z,31.23
2017-11-04T21:40:30.811Z,30.60
2017-11-04T21:42:59.983Z,31.80
2017-11-04T21:45:29.963Z,30.47
2017-11-04T21:47:58.693Z,31.00
2017-11-04T21:50:27.064Z,30.70
2017-11-04T21:52:55.940Z,29.27
2017-11-04T21:55:25.109Z,29.40
2017-11-04T21:57:53.477Z,28.87
2017-11-04T22:00:21.948Z,29.20
2017-11-04T22:02:51.238Z,28.17
2017-11-04T22:05:19.579Z,29.33
2017-11-04T22:07:50.434Z,29.70
2017-11-04T22:10:18.794Z,29.00
2017-11-04T22:12:47.969Z,28.80
2017-11-04T22:15:16.430Z,26.43
2017-11-04T22:17:44.814Z,25.87
2017-11-04T22:20:13.189Z,26.13
2017-11-04T22:22:43.074Z,25.10
2017-11-04T22:25:12.363Z,25.90
2017-11-04T22:27:41.488Z,25.80
2017-11-04T22:30:10.018Z,26.00
2017-11-04T22:32:38.369Z,25.70
2017-11-04T22:35:08.104Z,25.30
2017-11-04T22:37:37.786Z,25.30
2017-11-04T22:40:06.194Z,24.97
2017-11-04T22:42:34.547Z,23.00
2017-11-04T22:45:02.930Z,26.03
2017-11-04T22:47:31.322Z,22.57
2017-11-04T22:49:59.714Z,24.17
2017-11-04T22:52:28.709Z,24.50
2017-11-04T22:54:58.555Z,24.30
2017-11-04T22:57:27.704Z,25.13
2017-11-04T22:59:57.086Z,23.20
2017-11-04T23:02:25.503Z,24.43
2017-11-04T23:04:55.388Z,24.10
2017-11-04T23:07:23.772Z,23.10
2017-11-04T23:09:53.627Z,22.43
2017-11-04T23:12:22.171Z,22.77
2017-11-04T23:14:51.342Z,23.90
2017-11-04T23:17:19.714Z,22.40
2017-11-04T23:19:48.042Z,23.60
2017-11-04T23:22:17.375Z,21.30
2017-11-04T23:24:46.866Z,22.23
2017-11-04T23:27:15.473Z,20.87
2017-11-04T23:29:43.872Z,22.83
2017-11-04T23:32:12.216Z,22.30
2017-11-04T23:34:41.665Z,22.30
2017-11-04T23:37:12.037Z,21.97
2017-11-04T23:39:40.407Z,22.70
2017-11-04T23:42:08.902Z,22.80
2017-11-04T23:44:38.515Z,22.07
2017-11-04T23:47:08.405Z,21.43
2017-11-04T23:49:37.340Z,21.80
2017-11-04T23:52:06.421Z,22.43
2017-11-04T23:54:35.588Z,21.03
2017-11-04T23:57:04.542Z,22.67
2017-11-04T23:59:33.014Z,22.57
